QFO weather

Duxford Aerodrome
Duxford, England, United Kingdom

Public forecast

Using degrees Celsius for public forecast. Weather courtesy of forecast.io.

METAR (pilot weather report)

Closest report is Cambridge Airport, 7.0 nm (13.0 km) NNE. Retrieved 2019/03/26 16:20 UTC (0 seconds ago):

EGSC 261620Z 32009KT 300V360 9999 SCT042 12/02 Q1032

TAF (pilot weather forecast)

Closest forecast is London Stansted Airport, 12.9 nm (23.9 km) SSE. Retrieved 2019/03/26 12:00 UTC (4 hours ago):

TAF EGSS 261059Z 2612/2718 32009KT 9999 FEW042 PROB30 2704/2709 8000 BKN014